Time;durP1;ratioP1;P1;durP2;ratioP2;P2;SDS_P1;SDS_P2;PMS_P1;PMS_P2;Temp;Humidity;BMP_temperature;BMP_pressure;BME280_temperature;BME280_humidity;BME280_pressure;Samples;Min_cycle;Max_cycle;Signal;HPM_P1;HPM_P2
2021/09/15 00:00:08;;;;;;;34.47;31.40;;;18.00;99.90;;;;;;6132907;23;20024;-70
2021/09/15 00:02:34;;;;;;;35.95;32.53;;;17.90;99.90;;;;;;6157477;23;20330;-70
2021/09/15 00:04:59;;;;;;;35.58;32.45;;;17.90;99.90;;;;;;6183830;23;20019;-70
2021/09/15 00:07:25;;;;;;;36.30;32.88;;;17.90;99.90;;;;;;6183924;23;20021;-70
2021/09/15 00:09:50;;;;;;;35.47;32.28;;;17.90;99.90;;;;;;6183749;23;20023;-70
2021/09/15 00:12:16;;;;;;;34.80;31.60;;;17.90;99.90;;;;;;6157378;23;20100;-70
2021/09/15 00:14:42;;;;;;;37.22;33.95;;;17.80;99.90;;;;;;6157534;23;20044;-70
2021/09/15 00:17:07;;;;;;;35.25;32.05;;;17.80;99.90;;;;;;6157600;23;20013;-70
2021/09/15 00:19:33;;;;;;;35.17;31.95;;;17.70;99.90;;;;;;6157367;23;20044;-70
2021/09/15 00:21:58;;;;;;;36.95;33.40;;;17.80;99.90;;;;;;6132601;23;20016;-70
2021/09/15 00:24:24;;;;;;;37.20;33.67;;;17.70;99.90;;;;;;6183778;23;20017;-70
2021/09/15 00:26:49;;;;;;;35.72;32.55;;;17.70;99.90;;;;;;6157231;23;20012;-70
2021/09/15 00:29:15;;;;;;;40.53;36.55;;;17.70;99.90;;;;;;6157378;23;20059;-69
2021/09/15 00:31:41;;;;;;;38.20;34.75;;;17.60;99.90;;;;;;6157194;23;20108;-70
2021/09/15 00:34:06;;;;;;;37.78;34.22;;;17.60;99.90;;;;;;6157243;23;20009;-70
2021/09/15 00:36:32;;;;;;;39.22;35.42;;;17.60;99.90;;;;;;6157177;23;20017;-70
2021/09/15 00:38:57;;;;;;;37.33;33.65;;;17.50;99.90;;;;;;6157262;23;20024;-70
2021/09/15 00:41:23;;;;;;;36.80;33.40;;;17.40;99.90;;;;;;6183524;23;20020;-70
2021/09/15 00:44:00;;;;;;;40.45;36.55;;;17.40;99.90;;;;;;6157475;23;20013;-70
2021/09/15 00:46:27;;;;;;;36.65;33.15;;;17.40;99.90;;;;;;6183575;23;20242;-70
2021/09/15 00:48:52;;;;;;;38.47;34.67;;;17.30;99.90;;;;;;6132686;23;20027;-70
2021/09/15 00:51:19;;;;;;;37.33;33.80;;;17.30;99.90;;;;;;6157008;23;20009;-69
2021/09/15 00:53:45;;;;;;;36.33;32.83;;;17.30;99.90;;;;;;6183894;23;20031;-70
2021/09/15 00:56:11;;;;;;;39.45;35.58;;;17.20;99.90;;;;;;6156938;23;20476;-70
2021/09/15 00:58:36;;;;;;;37.63;34.00;;;17.20;99.90;;;;;;6157049;23;20337;-70
2021/09/15 01:01:02;;;;;;;35.80;32.40;;;17.20;99.90;;;;;;6156936;23;20021;-70
2021/09/15 01:03:27;;;;;;;37.17;33.63;;;17.10;99.90;;;;;;6183620;23;20441;-69
2021/09/15 01:05:53;;;;;;;35.00;31.60;;;17.10;99.90;;;;;;6156905;23;20025;-69
2021/09/15 01:08:19;;;;;;;38.13;34.53;;;17.00;99.90;;;;;;6183291;23;20092;-70
2021/09/15 01:10:45;;;;;;;36.67;33.28;;;17.00;99.90;;;;;;6156742;23;20059;-71
2021/09/15 01:13:12;;;;;;;35.03;31.73;;;17.00;99.90;;;;;;6156866;23;20017;-71
2021/09/15 01:15:38;;;;;;;33.13;30.15;;;17.00;99.90;;;;;;6156896;23;20017;-71
2021/09/15 01:18:18;;;;;;;32.85;29.80;;;17.00;99.90;;;;;;6156664;23;20020;-70
2021/09/15 01:20:44;;;;;;;32.25;29.17;;;17.00;99.90;;;;;;6183242;23;20457;-70
2021/09/15 01:23:09;;;;;;;36.13;32.53;;;17.10;99.90;;;;;;6156908;23;20020;-71
2021/09/15 01:25:35;;;;;;;35.90;32.35;;;17.00;99.90;;;;;;6156769;23;20144;-71
2021/09/15 01:28:01;;;;;;;36.42;32.88;;;17.00;99.90;;;;;;6183421;23;20061;-71
2021/09/15 01:30:26;;;;;;;33.97;30.70;;;17.00;99.90;;;;;;6132199;23;20016;-71
2021/09/15 01:32:52;;;;;;;34.42;31.20;;;17.00;99.90;;;;;;6183437;23;20482;-71
2021/09/15 01:35:17;;;;;;;37.45;33.60;;;17.00;99.90;;;;;;6183611;23;20031;-71
2021/09/15 01:37:43;;;;;;;34.90;31.60;;;17.10;99.90;;;;;;6183372;23;20028;-71
2021/09/15 01:40:09;;;;;;;39.60;35.47;;;17.10;99.90;;;;;;6183164;23;20044;-71
2021/09/15 01:42:35;;;;;;;35.83;32.45;;;17.00;99.90;;;;;;6156276;23;20013;-71
2021/09/15 01:45:03;;;;;;;40.10;36.17;;;17.00;99.90;;;;;;6183372;23;20008;-71
2021/09/15 01:47:28;;;;;;;35.92;32.42;;;17.00;99.90;;;;;;6182741;23;20033;-71
2021/09/15 01:49:54;;;;;;;34.15;30.98;;;17.00;99.90;;;;;;6156451;23;20020;-71
2021/09/15 01:52:20;;;;;;;35.15;31.80;;;17.00;99.90;;;;;;6131927;23;20024;-71
2021/09/15 01:54:46;;;;;;;36.75;33.05;;;16.90;99.90;;;;;;6183292;23;20448;-71
2021/09/15 01:57:12;;;;;;;37.97;34.28;;;16.90;99.90;;;;;;6156402;23;20495;-71
2021/09/15 01:59:38;;;;;;;39.55;35.45;;;16.90;99.90;;;;;;6156607;23;20013;-71
2021/09/15 02:02:03;;;;;;;39.83;36.05;;;16.90;99.90;;;;;;6182969;23;20027;-71
2021/09/15 02:04:29;;;;;;;39.00;35.28;;;16.90;99.90;;;;;;6183096;23;20013;-71
2021/09/15 02:06:55;;;;;;;42.40;38.25;;;16.80;99.90;;;;;;6156313;23;20013;-71
2021/09/15 02:09:21;;;;;;;38.65;34.28;;;16.90;99.90;;;;;;6182754;23;20358;-71
2021/09/15 02:11:47;;;;;;;43.78;39.17;;;16.90;99.90;;;;;;6182901;23;20009;-71
2021/09/15 02:14:13;;;;;;;40.80;36.60;;;16.90;99.90;;;;;;6183114;23;20025;-71
2021/09/15 02:16:39;;;;;;;41.83;37.60;;;16.90;99.90;;;;;;6131709;23;20092;-71
2021/09/15 02:19:05;;;;;;;40.80;36.55;;;16.90;99.90;;;;;;6156370;23;20048;-71
2021/09/15 02:21:30;;;;;;;45.22;40.58;;;16.90;99.90;;;;;;6152835;23;20017;-71
2021/09/15 02:23:58;;;;;;;42.35;38.25;;;16.90;99.90;;;;;;6153386;23;20488;-71
2021/09/15 02:26:24;;;;;;;45.65;40.92;;;16.90;99.90;;;;;;6153224;23;20020;-71
2021/09/15 02:28:49;;;;;;;45.22;40.20;;;16.90;99.90;;;;;;6152757;23;20021;-72
2021/09/15 02:31:15;;;;;;;45.83;41.22;;;16.90;99.90;;;;;;6152843;23;20337;-71
2021/09/15 02:33:41;;;;;;;45.60;40.97;;;16.90;99.90;;;;;;6152980;23;20085;-71
2021/09/15 02:36:06;;;;;;;48.03;42.78;;;17.00;99.90;;;;;;6152761;23;20013;-71
2021/09/15 02:38:32;;;;;;;44.88;40.25;;;17.00;99.90;;;;;;6152982;23;20013;-71
2021/09/15 02:40:57;;;;;;;47.30;42.28;;;17.10;99.90;;;;;;6152764;23;20048;-71
2021/09/15 02:43:23;;;;;;;44.33;39.85;;;17.10;99.90;;;;;;6102110;23;20349;-71
2021/09/15 02:45:48;;;;;;;45.38;40.47;;;17.10;99.90;;;;;;6153108;23;20017;-71
2021/09/15 02:48:14;;;;;;;45.85;41.22;;;17.10;99.90;;;;;;6152846;23;20017;-71
2021/09/15 02:50:40;;;;;;;52.47;46.97;;;17.10;99.90;;;;;;6152983;23;20016;-71
2021/09/15 02:53:05;;;;;;;48.00;42.83;;;17.20;99.90;;;;;;6126397;23;20009;-71
2021/09/15 02:55:31;;;;;;;49.63;44.05;;;17.20;99.90;;;;;;6152670;23;20013;-71
2021/09/15 02:57:57;;;;;;;46.33;41.70;;;17.20;99.90;;;;;;6152822;23;20080;-71
2021/09/15 03:00:22;;;;;;;47.65;42.75;;;17.20;99.90;;;;;;6152936;23;20390;-71
2021/09/15 03:02:48;;;;;;;50.17;44.83;;;17.10;99.90;;;;;;6152857;23;20068;-71
2021/09/15 03:05:13;;;;;;;47.63;42.78;;;17.10;99.90;;;;;;6126551;23;20098;-71
2021/09/15 03:07:39;;;;;;;46.13;41.33;;;17.10;99.90;;;;;;6126658;23;20338;-71
2021/09/15 03:10:06;;;;;;;54.10;45.58;;;17.00;99.90;;;;;;6102036;23;20342;-71
2021/09/15 03:12:32;;;;;;;49.90;44.72;;;17.00;99.90;;;;;;6152837;23;20017;-70
2021/09/15 03:14:58;;;;;;;60.38;49.80;;;16.90;99.90;;;;;;6126291;23;20081;-71
2021/09/15 03:17:24;;;;;;;51.30;45.75;;;16.90;99.90;;;;;;6126388;23;20113;-71
2021/09/15 03:19:49;;;;;;;47.28;42.25;;;16.90;99.90;;;;;;6126193;23;20017;-71
2021/09/15 03:22:15;;;;;;;49.60;44.00;;;16.80;99.90;;;;;;6133648;23;20057;-71
2021/09/15 03:24:41;;;;;;;57.53;47.58;;;16.80;99.90;;;;;;6150880;23;20021;-71
2021/09/15 03:27:07;;;;;;;53.58;46.40;;;16.80;99.90;;;;;;6152701;23;20406;-71
2021/09/15 03:29:33;;;;;;;50.72;45.28;;;16.80;99.90;;;;;;6152790;23;20041;-71
2021/09/15 03:31:59;;;;;;;47.95;42.90;;;16.70;99.90;;;;;;6152513;23;20017;-71
2021/09/15 03:34:25;;;;;;;52.00;45.53;;;16.70;99.90;;;;;;6150737;23;20434;-71
2021/09/15 03:36:51;;;;;;;50.05;44.75;;;16.70;99.90;;;;;;6152676;23;20129;-71
2021/09/15 03:39:17;;;;;;;50.25;44.92;;;16.60;99.90;;;;;;6152304;23;20751;-71
2021/09/15 03:41:43;;;;;;;46.72;41.80;;;16.60;99.90;;;;;;6153059;23;20014;-71
2021/09/15 03:44:08;;;;;;;47.25;42.28;;;16.60;99.90;;;;;;6152226;23;20323;-71
2021/09/15 03:46:34;;;;;;;58.80;49.50;;;16.60;99.90;;;;;;6150815;23;20021;-71
2021/09/15 03:49:00;;;;;;;48.05;43.10;;;16.50;99.90;;;;;;6152390;23;20394;-71
2021/09/15 03:51:26;;;;;;;49.10;43.83;;;16.50;99.90;;;;;;6152879;23;20014;-71
2021/09/15 03:53:52;;;;;;;55.28;46.22;;;16.50;99.90;;;;;;6150724;23;20457;-71
2021/09/15 03:56:18;;;;;;;50.25;45.05;;;16.50;99.90;;;;;;6152733;23;20025;-71
2021/09/15 03:58:43;;;;;;;48.55;43.40;;;16.40;99.90;;;;;;6152234;23;20089;-71
2021/09/15 04:01:10;;;;;;;46.95;42.03;;;16.40;99.90;;;;;;6150658;23;20020;-71
2021/09/15 04:03:36;;;;;;;68.95;52.05;;;16.40;99.90;;;;;;6150597;23;20022;-71
2021/09/15 04:06:02;;;;;;;52.75;46.60;;;16.40;99.90;;;;;;6126104;23;20052;-71
2021/09/15 04:08:27;;;;;;;47.35;42.30;;;16.30;99.90;;;;;;6150726;23;20034;-71
2021/09/15 04:10:53;;;;;;;47.13;41.90;;;16.30;99.90;;;;;;6150513;23;20410;-71
2021/09/15 04:13:19;;;;;;;54.25;45.80;;;16.20;99.90;;;;;;6152314;23;20349;-71
2021/09/15 04:15:44;;;;;;;59.33;48.10;;;16.20;99.90;;;;;;6152324;23;20062;-71
2021/09/15 04:18:10;;;;;;;47.17;42.33;;;16.20;99.90;;;;;;6150725;23;20473;-71
2021/09/15 04:20:36;;;;;;;56.33;47.35;;;16.20;99.90;;;;;;6151347;23;20020;-71
2021/09/15 04:23:01;;;;;;;48.10;43.00;;;16.20;99.90;;;;;;6152122;23;20024;-71
2021/09/15 04:33:40;;;;;;;45.53;40.85;;;16.10;99.90;;;;;;6152380;23;20406;-71
2021/09/15 04:36:05;;;;;;;46.67;41.65;;;16.10;99.90;;;;;;6153907;23;20092;-71
2021/09/15 04:38:31;;;;;;;46.83;41.72;;;16.10;99.90;;;;;;6153936;23;20048;-71
2021/09/15 04:40:56;;;;;;;49.33;43.35;;;16.00;99.90;;;;;;6153722;23;20017;-71
2021/09/15 04:43:22;;;;;;;48.47;41.63;;;16.00;99.90;;;;;;6152155;23;20025;-71
2021/09/15 04:45:47;;;;;;;45.50;40.63;;;16.00;99.90;;;;;;6153672;23;20060;-71
2021/09/15 04:48:13;;;;;;;45.38;40.63;;;16.00;99.90;;;;;;6127651;23;20024;-71
2021/09/15 04:50:39;;;;;;;53.30;45.72;;;16.00;99.90;;;;;;6152015;23;20400;-71
2021/09/15 04:53:04;;;;;;;52.65;44.42;;;16.00;99.90;;;;;;6153798;23;20025;-71
2021/09/15 04:55:32;;;;;;;72.65;50.78;;;16.00;99.90;;;;;;6153968;23;20025;-71
2021/09/15 04:57:57;;;;;;;48.83;42.97;;;16.00;99.90;;;;;;6152329;23;20045;-71
2021/09/15 05:00:24;;;;;;;52.80;44.63;;;16.00;99.90;;;;;;6153998;23;20322;-71
2021/09/15 05:02:49;;;;;;;57.33;45.92;;;16.00;99.90;;;;;;6153955;23;20017;-71
2021/09/15 05:05:15;;;;;;;46.78;41.72;;;16.00;99.90;;;;;;6153527;23;20010;-71
2021/09/15 05:07:40;;;;;;;43.88;39.28;;;16.00;99.90;;;;;;6152078;23;20013;-71
2021/09/15 05:10:07;;;;;;;67.68;42.88;;;16.00;99.90;;;;;;6153499;23;20022;-71
2021/09/15 05:12:32;;;;;;;119.25;49.33;;;16.00;99.90;;;;;;6151915;23;20479;-71
2021/09/15 05:14:58;;;;;;;50.72;44.40;;;15.90;99.90;;;;;;6151799;23;20088;-71
2021/09/15 05:17:24;;;;;;;59.63;45.30;;;15.90;99.90;;;;;;6153654;23;20013;-71
2021/09/15 05:19:50;;;;;;;65.25;44.45;;;15.90;99.90;;;;;;6153257;23;20108;-71
2021/09/15 05:22:16;;;;;;;57.03;45.95;;;15.90;99.90;;;;;;6150955;23;20032;-71
2021/09/15 05:24:41;;;;;;;134.02;53.17;;;15.90;99.90;;;;;;6151269;23;20010;-71
2021/09/15 05:27:07;;;;;;;110.05;52.15;;;15.90;99.90;;;;;;6153225;23;20009;-71
2021/09/15 05:29:32;;;;;;;53.70;45.50;;;16.00;99.90;;;;;;6127184;23;20020;-71
2021/09/15 05:31:58;;;;;;;151.02;54.55;;;16.00;99.90;;;;;;6152615;23;20020;-71
2021/09/15 05:34:24;;;;;;;58.25;46.65;;;16.00;99.90;;;;;;6151751;23;20021;-71
2021/09/15 05:36:49;;;;;;;53.60;46.28;;;16.10;99.90;;;;;;6153475;23;20100;-71
2021/09/15 05:39:15;;;;;;;47.65;42.60;;;16.10;99.90;;;;;;6153575;23;20040;-71
2021/09/15 05:41:40;;;;;;;47.65;42.45;;;16.10;99.90;;;;;;6126945;23;20072;-71
2021/09/15 05:44:06;;;;;;;50.63;43.22;;;16.20;99.90;;;;;;6151587;23;20114;-71
2021/09/15 05:46:31;;;;;;;57.05;46.35;;;16.20;99.90;;;;;;6126961;23;20013;-71
2021/09/15 05:48:57;;;;;;;49.42;43.53;;;16.20;99.90;;;;;;6153500;23;20033;-71
2021/09/15 05:51:23;;;;;;;53.15;44.88;;;16.30;99.90;;;;;;6126859;23;20020;-71
2021/09/15 05:53:48;;;;;;;50.17;43.05;;;16.30;99.90;;;;;;6151613;23;20442;-71
2021/09/15 05:56:14;;;;;;;45.90;41.03;;;16.40;99.90;;;;;;6153346;23;20032;-71
2021/09/15 05:58:39;;;;;;;56.88;46.65;;;16.40;99.90;;;;;;6151445;23;20084;-71
2021/09/15 06:01:06;;;;;;;68.68;51.47;;;16.50;99.90;;;;;;6151355;23;20014;-71
2021/09/15 06:03:32;;;;;;;57.75;47.55;;;16.60;99.90;;;;;;6153280;23;20021;-71
2021/09/15 06:05:58;;;;;;;52.85;46.88;;;16.70;99.90;;;;;;6151403;23;20110;-71
2021/09/15 06:08:24;;;;;;;59.30;49.92;;;16.70;99.90;;;;;;6153393;23;20103;-71
2021/09/15 06:10:49;;;;;;;56.35;47.30;;;16.80;99.90;;;;;;6153188;23;20080;-71
2021/09/15 06:13:15;;;;;;;58.05;49.17;;;16.80;99.90;;;;;;6151816;23;20083;-71
2021/09/15 06:15:41;;;;;;;49.75;42.92;;;16.90;99.90;;;;;;6126858;23;20017;-71
2021/09/15 06:18:07;;;;;;;49.95;44.60;;;17.00;99.90;;;;;;6151348;23;20048;-71
2021/09/15 06:20:32;;;;;;;53.33;46.20;;;17.00;99.90;;;;;;6151442;23;20018;-70
2021/09/15 06:22:58;;;;;;;51.08;45.50;;;17.10;99.90;;;;;;6150815;23;20014;-70
2021/09/15 06:25:24;;;;;;;52.28;44.97;;;17.10;99.90;;;;;;6126688;23;20096;-70
2021/09/15 06:27:51;;;;;;;47.83;42.75;;;17.20;99.90;;;;;;6126598;23;20013;-70
2021/09/15 06:30:17;;;;;;;55.35;47.95;;;17.20;99.90;;;;;;6151342;23;20040;-70
2021/09/15 06:32:43;;;;;;;64.22;50.88;;;17.30;99.90;;;;;;6151076;23;20022;-70
2021/09/15 06:35:11;;;;;;;56.42;49.80;;;17.30;99.90;;;;;;6126605;23;20048;-70
2021/09/15 06:37:37;;;;;;;57.30;48.97;;;17.30;99.90;;;;;;6151066;23;20080;-70
2021/09/15 06:40:04;;;;;;;60.55;50.50;;;17.40;99.90;;;;;;6151179;23;20426;-70
2021/09/15 06:42:29;;;;;;;60.30;51.88;;;17.40;99.90;;;;;;6150750;23;20496;-70
2021/09/15 06:44:55;;;;;;;61.80;53.13;;;17.50;99.90;;;;;;6151096;23;20091;-69
2021/09/15 06:47:20;;;;;;;67.97;54.83;;;17.60;99.90;;;;;;6150838;23;20441;-69
2021/09/15 06:49:46;;;;;;;67.50;54.80;;;17.60;99.90;;;;;;6151115;23;20084;-70
2021/09/15 06:52:12;;;;;;;59.97;50.35;;;17.70;99.90;;;;;;6150585;23;20025;-70
2021/09/15 06:54:37;;;;;;;67.72;54.95;;;17.70;99.90;;;;;;6150831;23;20045;-70
2021/09/15 06:57:03;;;;;;;64.05;52.65;;;17.80;99.90;;;;;;6126359;23;20381;-70
2021/09/15 06:59:28;;;;;;;64.05;52.40;;;17.80;99.90;;;;;;6150869;23;20584;-71
2021/09/15 07:01:54;;;;;;;65.13;53.25;;;17.90;99.90;;;;;;6152360;23;20021;-71
2021/09/15 07:04:19;;;;;;;62.95;51.95;;;18.00;99.90;;;;;;6151027;23;20048;-70
2021/09/15 07:06:45;;;;;;;52.38;46.58;;;18.10;99.90;;;;;;6151211;23;20097;-69
2021/09/15 07:09:11;;;;;;;57.53;48.30;;;18.10;99.90;;;;;;6126447;23;20104;-70
2021/09/15 07:11:36;;;;;;;69.15;53.53;;;18.20;99.90;;;;;;6151187;23;20060;-70
2021/09/15 07:14:04;;;;;;;58.67;50.42;;;18.30;99.90;;;;;;6152741;23;20009;-70
2021/09/15 07:16:31;;;;;;;54.53;46.97;;;18.30;99.90;;;;;;6150841;23;20032;-70
2021/09/15 07:18:57;;;;;;;62.28;50.35;;;18.40;99.90;;;;;;6126322;23;20020;-70
2021/09/15 07:21:23;;;;;;;55.47;47.42;;;18.40;99.90;;;;;;6150746;23;20626;-70
2021/09/15 07:23:48;;;;;;;56.67;48.72;;;18.50;99.90;;;;;;6126199;23;20342;-70
2021/09/15 07:26:14;;;;;;;52.55;46.17;;;18.60;99.90;;;;;;6126267;23;20437;-70
2021/09/15 07:28:39;;;;;;;60.88;50.45;;;18.60;99.90;;;;;;6126071;23;20025;-70
2021/09/15 07:31:05;;;;;;;57.40;48.08;;;18.70;99.90;;;;;;6152733;23;20014;-70
2021/09/15 07:33:33;;;;;;;60.33;49.70;;;18.70;99.90;;;;;;6152212;23;20349;-70
2021/09/15 07:36:03;;;;;;;58.40;49.33;;;18.70;99.90;;;;;;6126485;23;20080;-70
2021/09/15 07:38:30;;;;;;;55.58;45.63;;;18.70;99.90;;;;;;6126066;23;20445;-70
2021/09/15 07:40:57;;;;;;;60.28;48.85;;;18.80;99.90;;;;;;6126241;23;20064;-70
2021/09/15 07:43:23;;;;;;;61.28;48.75;;;18.80;99.90;;;;;;6126137;23;20093;-70
2021/09/15 07:45:48;;;;;;;63.00;49.88;;;18.80;99.90;;;;;;6152717;23;20017;-70
2021/09/15 07:48:14;;;;;;;64.00;48.92;;;18.90;99.90;;;;;;6101673;23;20017;-70
2021/09/15 07:50:40;;;;;;;61.88;48.22;;;18.80;99.90;;;;;;6126225;23;20069;-70
2021/09/15 07:53:06;;;;;;;66.97;49.38;;;18.80;99.90;;;;;;6152501;23;20033;-69
2021/09/15 07:55:31;;;;;;;72.50;54.25;;;18.90;99.90;;;;;;6102747;23;20029;-70
2021/09/15 07:57:57;;;;;;;71.07;50.50;;;18.90;99.90;;;;;;6128022;23;20345;-70
2021/09/15 08:00:22;;;;;;;71.03;52.42;;;18.90;99.90;;;;;;6128397;23;20097;-70
2021/09/15 08:02:48;;;;;;;69.57;51.13;;;18.90;99.90;;;;;;6127861;23;20025;-70
2021/09/15 08:05:15;;;;;;;67.32;52.30;;;18.90;99.90;;;;;;6128017;23;20017;-71
2021/09/15 08:07:41;;;;;;;72.15;52.97;;;18.90;99.90;;;;;;6128190;23;20044;-72
2021/09/15 08:10:07;;;;;;;68.68;51.83;;;18.90;99.90;;;;;;6128005;23;20432;-70
2021/09/15 08:12:33;;;;;;;69.47;52.45;;;19.00;99.90;;;;;;6154350;23;20029;-70
2021/09/15 08:14:59;;;;;;;70.03;49.90;;;19.00;99.90;;;;;;6127791;23;20029;-70
2021/09/15 08:17:24;;;;;;;67.28;51.25;;;19.00;99.90;;;;;;6127953;23;20455;-70
2021/09/15 08:19:50;;;;;;;62.35;49.88;;;19.10;99.90;;;;;;6127898;23;20017;-70
2021/09/15 08:22:16;;;;;;;66.25;50.75;;;19.20;99.90;;;;;;6135201;23;20022;-70
2021/09/15 08:24:42;;;;;;;69.72;51.58;;;19.30;99.90;;;;;;6154114;23;20088;-70
2021/09/15 08:27:07;;;;;;;55.00;46.22;;;19.40;99.90;;;;;;6152338;23;20052;-70
2021/09/15 08:29:33;;;;;;;62.10;49.90;;;19.50;99.90;;;;;;6152229;23;20014;-70
2021/09/15 08:31:58;;;;;;;67.18;51.90;;;19.60;99.90;;;;;;6152358;23;20374;-70
2021/09/15 08:34:24;;;;;;;66.95;52.28;;;19.60;99.90;;;;;;6152240;23;20067;-70
2021/09/15 08:36:49;;;;;;;65.95;51.90;;;19.70;99.90;;;;;;6153972;23;20013;-70
2021/09/15 08:39:16;;;;;;;65.68;51.47;;;19.70;99.90;;;;;;6154028;23;20128;-70
2021/09/15 08:41:41;;;;;;;54.20;45.33;;;19.80;99.90;;;;;;6152690;23;20028;-75
2021/09/15 08:44:07;;;;;;;66.50;50.63;;;19.90;99.90;;;;;;6152169;23;20010;-75
2021/09/15 08:46:34;;;;;;;69.32;52.75;;;19.90;99.90;;;;;;6152207;23;20029;-75
2021/09/15 08:49:00;;;;;;;66.80;53.15;;;19.90;99.90;;;;;;6127483;23;20100;-75
2021/09/15 08:51:26;;;;;;;68.00;52.92;;;19.90;99.90;;;;;;6152074;23;20056;-75
2021/09/15 08:53:53;;;;;;;65.32;51.63;;;19.90;99.90;;;;;;6153557;23;20020;-75
2021/09/15 08:56:19;;;;;;;61.85;49.63;;;20.00;99.90;;;;;;6152098;23;20017;-75
2021/09/15 08:58:45;;;;;;;62.65;50.45;;;20.10;99.90;;;;;;6152349;23;20021;-75
2021/09/15 09:01:21;;;;;;;61.65;49.67;;;20.10;99.90;;;;;;6152037;23;20013;-75
2021/09/15 09:03:52;;;;;;;62.47;51.08;;;20.20;99.90;;;;;;6127405;23;20373;-75
2021/09/15 09:06:21;;;;;;;62.90;51.00;;;20.30;99.90;;;;;;6152141;23;20335;-75
2021/09/15 09:08:52;;;;;;;55.95;46.25;;;20.30;99.90;;;;;;6152095;23;20108;-75
2021/09/15 09:11:18;;;;;;;56.00;45.60;;;20.50;99.90;;;;;;6152051;23;20012;-75
2021/09/15 09:13:55;;;;;;;54.88;46.67;;;20.50;99.90;;;;;;6151919;23;20018;-75
2021/09/15 09:16:44;;;;;;;54.75;46.38;;;20.50;99.90;;;;;;6151962;23;20472;-75
2021/09/15 09:19:12;;;;;;;51.45;44.85;;;20.60;99.90;;;;;;6151883;23;20013;-75
2021/09/15 09:21:40;;;;;;;50.03;43.85;;;20.60;99.90;;;;;;6151730;23;20573;-76
2021/09/15 09:24:09;;;;;;;48.35;41.30;;;20.60;99.90;;;;;;6127225;23;20018;-75
2021/09/15 09:26:49;;;;;;;48.70;41.95;;;20.70;99.90;;;;;;6127503;23;20446;-75
2021/09/15 09:29:21;;;;;;;45.90;40.72;;;20.80;99.90;;;;;;6127114;23;20048;-75
2021/09/15 09:31:56;;;;;;;47.08;41.72;;;20.80;99.90;;;;;;6127262;23;20016;-75
2021/09/15 09:34:24;;;;;;;45.70;39.58;;;20.80;99.90;;;;;;6126993;23;20017;-75
2021/09/15 09:37:00;;;;;;;42.47;37.38;;;20.90;99.90;;;;;;6127216;23;20022;-76
2021/09/15 09:39:47;;;;;;;43.67;38.95;;;21.00;99.90;;;;;;6127061;23;20048;-76
2021/09/15 09:42:26;;;;;;;42.47;37.97;;;21.00;99.90;;;;;;6127216;23;20024;-75
2021/09/15 09:44:54;;;;;;;38.90;34.70;;;21.10;99.90;;;;;;6126920;23;20445;-75
2021/09/15 09:47:25;;;;;;;39.30;35.17;;;21.20;99.90;;;;;;6127178;23;20010;-75
2021/09/15 09:50:01;;;;;;;45.40;35.70;;;21.20;99.90;;;;;;6127044;23;20013;-75
2021/09/15 09:52:27;;;;;;;39.47;35.28;;;21.20;99.90;;;;;;6102512;23;20017;-76
2021/09/15 09:55:00;;;;;;;35.28;31.52;;;21.20;99.90;;;;;;6127255;23;20346;-75
2021/09/15 09:57:30;;;;;;;36.33;32.42;;;21.10;99.90;;;;;;6127026;23;20095;-75
2021/09/15 09:59:57;;;;;;;36.65;32.85;;;21.10;99.90;;;;;;6126678;23;20053;-75
2021/09/15 10:02:22;;;;;;;33.40;30.02;;;21.00;99.90;;;;;;6102477;23;20338;-75
2021/09/15 10:04:48;;;;;;;33.17;29.83;;;21.00;99.90;;;;;;6126739;23;20017;-75
2021/09/15 10:07:15;;;;;;;33.08;29.65;;;21.00;99.90;;;;;;6126850;23;20044;-75
2021/09/15 10:09:43;;;;;;;35.85;32.10;;;21.10;99.90;;;;;;6126878;23;20010;-75
2021/09/15 10:12:10;;;;;;;32.05;28.85;;;21.20;99.90;;;;;;6102187;23;20017;-76
2021/09/15 10:14:37;;;;;;;34.13;30.48;;;21.20;99.90;;;;;;6126843;23;20013;-75
2021/09/15 10:17:14;;;;;;;33.28;29.80;;;21.30;99.90;;;;;;6102062;23;20009;-76
2021/09/15 10:19:44;;;;;;;33.00;29.60;;;21.30;99.90;;;;;;6126725;23;20346;-75
2021/09/15 10:22:10;;;;;;;31.60;28.52;;;21.30;99.90;;;;;;6152740;23;20080;-75
2021/09/15 10:24:47;;;;;;;34.00;28.00;;;21.30;99.90;;;;;;6126611;23;20433;-76
2021/09/15 10:27:16;;;;;;;33.67;30.25;;;21.40;99.90;;;;;;6127168;23;20032;-75
2021/09/15 10:29:42;;;;;;;31.77;28.48;;;21.40;99.90;;;;;;6126861;23;20471;-75
2021/09/15 10:32:12;;;;;;;30.02;27.13;;;21.40;99.90;;;;;;6126342;23;20020;-75
2021/09/15 10:37:04;;;;;;;35.60;31.98;;;21.50;99.90;;;;;;6126249;23;20018;-75
2021/09/15 10:39:31;;;;;;;32.45;29.08;;;21.50;99.90;;;;;;6126567;23;20072;-75
2021/09/15 10:41:57;;;;;;;32.38;29.00;;;21.60;99.90;;;;;;6126251;23;20016;-75
2021/09/15 10:44:23;;;;;;;31.75;28.30;;;21.60;99.90;;;;;;6126304;23;20110;-72
2021/09/15 10:46:49;;;;;;;30.25;27.08;;;21.60;99.90;;;;;;6124753;23;20010;-76
2021/09/15 10:49:24;;;;;;;34.58;31.17;;;21.70;99.90;;;;;;6100507;23;20013;-72
2021/09/15 10:52:08;;;;;;;34.70;31.13;;;21.70;99.90;;;;;;6125612;23;20017;-72
2021/09/15 10:54:51;;;;;;;31.73;28.27;;;21.80;99.90;;;;;;6126565;23;20025;-72
2021/09/15 10:57:40;;;;;;;34.17;30.67;;;21.80;99.90;;;;;;6125501;23;20013;-72
2021/09/15 11:00:23;;;;;;;34.75;31.30;;;21.80;99.90;;;;;;6101320;23;20017;-72
2021/09/15 11:02:49;;;;;;;35.97;32.45;;;21.70;99.90;;;;;;6100997;23;20357;-72
2021/09/15 11:05:27;;;;;;;35.78;31.67;;;21.70;99.90;;;;;;6125946;23;20017;-72
2021/09/15 11:07:57;;;;;;;35.08;31.58;;;21.80;99.90;;;;;;6126702;23;20013;-73
2021/09/15 11:10:32;;;;;;;33.83;30.52;;;21.90;99.90;;;;;;6102769;23;20025;-73
2021/09/15 11:13:02;;;;;;;31.38;28.38;;;21.90;99.90;;;;;;6152833;23;20017;-73
2021/09/15 11:15:30;;;;;;;30.42;27.42;;;21.80;99.90;;;;;;6126887;23;20040;-73
2021/09/15 11:17:56;;;;;;;32.92;29.75;;;21.80;99.90;;;;;;6124916;23;20519;-73
2021/09/15 11:20:23;;;;;;;29.92;27.02;;;21.70;99.90;;;;;;6101898;23;20017;-73
2021/09/15 11:22:50;;;;;;;31.33;28.10;;;21.60;99.90;;;;;;6151332;23;20106;-73
2021/09/15 11:25:21;;;;;;;30.63;27.48;;;21.60;99.90;;;;;;6126188;23;20013;-71
2021/09/15 11:28:05;;;;;;;30.65;27.42;;;21.60;99.90;;;;;;6126439;23;20348;-69
2021/09/15 11:30:31;;;;;;;32.65;28.05;;;21.50;99.90;;;;;;6154391;23;20031;-69
2021/09/15 11:33:00;;;;;;;34.38;28.50;;;21.40;99.90;;;;;;6153788;23;20456;-69
2021/09/15 11:35:25;;;;;;;36.05;28.27;;;21.40;99.90;;;;;;6153699;23;20014;-68
2021/09/15 11:37:51;;;;;;;34.03;29.30;;;21.30;99.90;;;;;;6153116;23;20444;-69
2021/09/15 11:40:17;;;;;;;33.28;29.20;;;21.30;99.90;;;;;;6128264;23;20067;-68
2021/09/15 11:42:42;;;;;;;35.90;30.48;;;21.40;99.90;;;;;;6153367;23;20067;-68
2021/09/15 11:45:16;;;;;;;39.15;30.00;;;21.60;99.90;;;;;;6153065;23;20021;-69
2021/09/15 11:47:47;;;;;;;33.90;30.23;;;21.90;99.90;;;;;;6102434;23;20020;-69
2021/09/15 11:50:14;;;;;;;34.92;30.38;;;22.10;99.90;;;;;;6127934;23;20092;-72
2021/09/15 11:52:47;;;;;;;33.45;29.48;;;22.50;99.90;;;;;;6126269;23;20018;-71
2021/09/15 11:55:14;;;;;;;35.97;29.08;;;22.40;99.90;;;;;;6154108;23;20020;-71
2021/09/15 11:57:47;;;;;;;35.55;31.35;;;22.40;99.90;;;;;;6127595;23;20449;-72
2021/09/15 12:00:14;;;;;;;35.40;30.77;;;22.20;99.90;;;;;;6128873;23;20060;-72
2021/09/15 12:02:41;;;;;;;35.63;29.58;;;22.10;99.90;;;;;;6127929;23;20018;-72
2021/09/15 12:05:09;;;;;;;37.47;30.73;;;22.30;99.90;;;;;;6154663;23;20089;-71
2021/09/15 12:07:35;;;;;;;34.30;29.58;;;22.40;99.90;;;;;;6128427;23;20045;-72
2021/09/15 12:10:04;;;;;;;33.83;29.33;;;22.60;99.90;;;;;;6154484;23;20096;-71
2021/09/15 12:12:30;;;;;;;32.70;29.17;;;22.90;99.90;;;;;;6154522;23;20137;-71
2021/09/15 12:14:57;;;;;;;32.10;28.33;;;23.10;99.90;;;;;;6128143;23;20056;-71
2021/09/15 12:17:23;;;;;;;32.45;28.80;;;23.30;99.90;;;;;;6126401;23;20516;-72
2021/09/15 12:19:49;;;;;;;30.08;26.70;;;23.30;99.90;;;;;;6126198;23;20025;-72
2021/09/15 12:22:19;;;;;;;27.23;23.25;;;23.20;99.90;;;;;;6139701;23;20811;-71
2021/09/15 12:25:08;;;;;;;25.50;22.80;;;23.10;99.90;;;;;;6156470;23;20100;-71
2021/09/15 12:27:34;;;;;;;23.38;20.67;;;23.00;99.90;;;;;;6185677;23;20051;-71
2021/09/15 12:30:04;;;;;;;24.67;21.83;;;23.00;99.90;;;;;;6156206;23;20013;-71
2021/09/15 12:32:35;;;;;;;24.30;21.70;;;23.00;99.90;;;;;;6156168;23;20471;-72
2021/09/15 12:35:00;;;;;;;25.60;22.73;;;23.00;99.90;;;;;;6156440;23;20028;-72